sensor_id;sensor_type;location;lat;lon;timestamp;P1;durP1;ratioP1;P2;durP2;ratioP2
59970;SDS011;45825;45.434;9.116;2023-06-26T00:00:11;6.55;;;3.70;;
59970;SDS011;45825;45.434;9.116;2023-06-26T00:02:37;7.70;;;3.63;;
59970;SDS011;45825;45.434;9.116;2023-06-26T00:05:03;8.80;;;4.13;;
59970;SDS011;45825;45.434;9.116;2023-06-26T00:07:29;6.95;;;3.45;;
59970;SDS011;45825;45.434;9.116;2023-06-26T00:09:56;7.40;;;4.10;;
59970;SDS011;45825;45.434;9.116;2023-06-26T00:12:22;10.13;;;3.90;;
59970;SDS011;45825;45.434;9.116;2023-06-26T00:14:47;7.88;;;3.80;;
59970;SDS011;45825;45.434;9.116;2023-06-26T00:17:13;8.48;;;3.80;;
59970;SDS011;45825;45.434;9.116;2023-06-26T00:19:38;7.72;;;4.43;;
59970;SDS011;45825;45.434;9.116;2023-06-26T00:22:03;8.50;;;3.78;;
59970;SDS011;45825;45.434;9.116;2023-06-26T00:24:29;8.02;;;3.95;;
59970;SDS011;45825;45.434;9.116;2023-06-26T00:26:54;9.20;;;4.20;;
59970;SDS011;45825;45.434;9.116;2023-06-26T00:29:19;6.10;;;3.50;;
59970;SDS011;45825;45.434;9.116;2023-06-26T00:31:44;6.70;;;3.63;;
59970;SDS011;45825;45.434;9.116;2023-06-26T00:34:10;5.63;;;3.50;;
59970;SDS011;45825;45.434;9.116;2023-06-26T00:36:35;6.30;;;3.40;;
59970;SDS011;45825;45.434;9.116;2023-06-26T00:39:00;7.30;;;3.70;;
59970;SDS011;45825;45.434;9.116;2023-06-26T00:41:26;7.95;;;3.88;;
59970;SDS011;45825;45.434;9.116;2023-06-26T00:43:51;7.13;;;3.88;;
59970;SDS011;45825;45.434;9.116;2023-06-26T00:46:16;7.78;;;4.63;;
59970;SDS011;45825;45.434;9.116;2023-06-26T00:48:42;8.55;;;3.65;;
59970;SDS011;45825;45.434;9.116;2023-06-26T00:51:09;8.05;;;4.18;;
59970;SDS011;45825;45.434;9.116;2023-06-26T00:53:35;8.80;;;3.97;;
59970;SDS011;45825;45.434;9.116;2023-06-26T00:56:00;9.30;;;4.22;;
59970;SDS011;45825;45.434;9.116;2023-06-26T00:58:27;7.25;;;3.60;;
59970;SDS011;45825;45.434;9.116;2023-06-26T01:00:52;7.93;;;3.80;;
59970;SDS011;45825;45.434;9.116;2023-06-26T01:03:18;7.60;;;3.75;;
59970;SDS011;45825;45.434;9.116;2023-06-26T01:05:44;6.95;;;4.00;;
59970;SDS011;45825;45.434;9.116;2023-06-26T01:08:11;7.18;;;4.00;;
59970;SDS011;45825;45.434;9.116;2023-06-26T01:10:38;8.07;;;4.68;;
59970;SDS011;45825;45.434;9.116;2023-06-26T01:13:04;9.70;;;4.47;;
59970;SDS011;45825;45.434;9.116;2023-06-26T01:15:30;8.93;;;4.45;;
59970;SDS011;45825;45.434;9.116;2023-06-26T01:17:55;8.20;;;4.43;;
59970;SDS011;45825;45.434;9.116;2023-06-26T01:20:25;7.68;;;4.00;;
59970;SDS011;45825;45.434;9.116;2023-06-26T01:23:26;8.25;;;4.18;;
59970;SDS011;45825;45.434;9.116;2023-06-26T01:28:45;8.50;;;4.47;;
59970;SDS011;45825;45.434;9.116;2023-06-26T01:31:11;7.78;;;4.00;;
59970;SDS011;45825;45.434;9.116;2023-06-26T01:33:38;8.82;;;4.22;;
59970;SDS011;45825;45.434;9.116;2023-06-26T01:36:05;7.95;;;4.25;;
59970;SDS011;45825;45.434;9.116;2023-06-26T01:38:31;7.50;;;4.35;;
59970;SDS011;45825;45.434;9.116;2023-06-26T01:40:56;8.65;;;4.32;;
59970;SDS011;45825;45.434;9.116;2023-06-26T01:43:27;8.90;;;4.05;;
59970;SDS011;45825;45.434;9.116;2023-06-26T01:46:01;10.38;;;4.00;;
59970;SDS011;45825;45.434;9.116;2023-06-26T01:48:40;12.07;;;3.80;;
59970;SDS011;45825;45.434;9.116;2023-06-26T01:51:12;7.25;;;3.67;;
59970;SDS011;45825;45.434;9.116;2023-06-26T01:53:43;7.20;;;4.00;;
59970;SDS011;45825;45.434;9.116;2023-06-26T01:56:13;6.95;;;4.43;;
59970;SDS011;45825;45.434;9.116;2023-06-26T01:58:41;10.10;;;4.00;;
59970;SDS011;45825;45.434;9.116;2023-06-26T02:01:10;8.93;;;4.45;;
59970;SDS011;45825;45.434;9.116;2023-06-26T02:03:36;7.38;;;4.22;;
59970;SDS011;45825;45.434;9.116;2023-06-26T02:06:01;8.23;;;3.90;;
59970;SDS011;45825;45.434;9.116;2023-06-26T02:08:26;6.90;;;3.97;;
59970;SDS011;45825;45.434;9.116;2023-06-26T02:10:52;8.55;;;3.80;;
59970;SDS011;45825;45.434;9.116;2023-06-26T02:13:17;8.75;;;3.63;;
59970;SDS011;45825;45.434;9.116;2023-06-26T02:15:42;8.70;;;3.92;;
59970;SDS011;45825;45.434;9.116;2023-06-26T02:18:08;8.52;;;4.30;;
59970;SDS011;45825;45.434;9.116;2023-06-26T02:20:33;8.90;;;3.90;;
59970;SDS011;45825;45.434;9.116;2023-06-26T02:25:33;7.50;;;3.95;;
59970;SDS011;45825;45.434;9.116;2023-06-26T02:27:59;6.78;;;4.05;;
59970;SDS011;45825;45.434;9.116;2023-06-26T02:30:24;7.78;;;3.63;;
59970;SDS011;45825;45.434;9.116;2023-06-26T02:32:49;6.95;;;3.60;;
59970;SDS011;45825;45.434;9.116;2023-06-26T02:35:15;6.60;;;3.38;;
59970;SDS011;45825;45.434;9.116;2023-06-26T02:37:40;7.97;;;3.80;;
59970;SDS011;45825;45.434;9.116;2023-06-26T02:40:05;9.43;;;3.70;;
59970;SDS011;45825;45.434;9.116;2023-06-26T02:42:32;7.10;;;4.05;;
59970;SDS011;45825;45.434;9.116;2023-06-26T02:44:58;8.13;;;3.72;;
59970;SDS011;45825;45.434;9.116;2023-06-26T02:47:23;7.68;;;3.50;;
59970;SDS011;45825;45.434;9.116;2023-06-26T02:49:48;7.78;;;3.55;;
59970;SDS011;45825;45.434;9.116;2023-06-26T02:52:14;7.22;;;3.45;;
59970;SDS011;45825;45.434;9.116;2023-06-26T02:54:39;7.40;;;3.85;;
59970;SDS011;45825;45.434;9.116;2023-06-26T02:57:04;7.07;;;3.78;;
59970;SDS011;45825;45.434;9.116;2023-06-26T02:59:30;6.35;;;3.65;;
59970;SDS011;45825;45.434;9.116;2023-06-26T03:01:55;7.78;;;3.97;;
59970;SDS011;45825;45.434;9.116;2023-06-26T03:04:20;6.50;;;3.50;;
59970;SDS011;45825;45.434;9.116;2023-06-26T03:06:46;6.68;;;3.47;;
59970;SDS011;45825;45.434;9.116;2023-06-26T03:09:12;8.77;;;4.00;;
59970;SDS011;45825;45.434;9.116;2023-06-26T03:11:37;9.75;;;3.97;;
59970;SDS011;45825;45.434;9.116;2023-06-26T03:14:02;8.27;;;3.67;;
59970;SDS011;45825;45.434;9.116;2023-06-26T03:16:28;8.57;;;3.85;;
59970;SDS011;45825;45.434;9.116;2023-06-26T03:18:53;7.67;;;4.20;;
59970;SDS011;45825;45.434;9.116;2023-06-26T03:21:18;7.45;;;3.80;;
59970;SDS011;45825;45.434;9.116;2023-06-26T03:23:43;8.13;;;4.10;;
59970;SDS011;45825;45.434;9.116;2023-06-26T03:26:09;7.25;;;3.78;;
59970;SDS011;45825;45.434;9.116;2023-06-26T03:28:34;7.95;;;3.92;;
59970;SDS011;45825;45.434;9.116;2023-06-26T03:30:59;6.57;;;3.88;;
59970;SDS011;45825;45.434;9.116;2023-06-26T03:33:25;6.75;;;3.90;;
59970;SDS011;45825;45.434;9.116;2023-06-26T03:35:50;6.95;;;3.63;;
59970;SDS011;45825;45.434;9.116;2023-06-26T03:38:15;9.27;;;4.03;;
59970;SDS011;45825;45.434;9.116;2023-06-26T03:40:41;10.07;;;3.92;;
59970;SDS011;45825;45.434;9.116;2023-06-26T03:43:06;7.97;;;3.53;;
59970;SDS011;45825;45.434;9.116;2023-06-26T03:45:31;8.45;;;4.07;;
59970;SDS011;45825;45.434;9.116;2023-06-26T03:47:57;7.72;;;4.20;;
59970;SDS011;45825;45.434;9.116;2023-06-26T03:50:22;6.75;;;3.85;;
59970;SDS011;45825;45.434;9.116;2023-06-26T03:52:47;6.90;;;4.20;;
59970;SDS011;45825;45.434;9.116;2023-06-26T03:55:14;6.03;;;3.50;;
59970;SDS011;45825;45.434;9.116;2023-06-26T03:57:40;8.95;;;3.95;;
59970;SDS011;45825;45.434;9.116;2023-06-26T04:00:05;7.65;;;3.80;;
59970;SDS011;45825;45.434;9.116;2023-06-26T04:02:33;8.25;;;4.28;;
59970;SDS011;45825;45.434;9.116;2023-06-26T04:04:59;9.55;;;5.15;;
59970;SDS011;45825;45.434;9.116;2023-06-26T04:07:25;10.05;;;5.55;;
59970;SDS011;45825;45.434;9.116;2023-06-26T04:09:50;8.90;;;5.47;;
59970;SDS011;45825;45.434;9.116;2023-06-26T04:12:16;12.30;;;6.53;;
59970;SDS011;45825;45.434;9.116;2023-06-26T04:14:41;10.40;;;6.15;;
59970;SDS011;45825;45.434;9.116;2023-06-26T04:17:06;13.77;;;7.45;;
59970;SDS011;45825;45.434;9.116;2023-06-26T04:19:32;12.48;;;6.82;;
59970;SDS011;45825;45.434;9.116;2023-06-26T04:21:57;13.60;;;6.80;;
59970;SDS011;45825;45.434;9.116;2023-06-26T04:24:23;13.40;;;6.60;;
59970;SDS011;45825;45.434;9.116;2023-06-26T04:26:48;11.57;;;5.97;;
59970;SDS011;45825;45.434;9.116;2023-06-26T04:29:13;12.43;;;5.93;;
59970;SDS011;45825;45.434;9.116;2023-06-26T04:31:38;12.80;;;6.07;;
59970;SDS011;45825;45.434;9.116;2023-06-26T04:34:04;11.15;;;5.50;;
59970;SDS011;45825;45.434;9.116;2023-06-26T04:36:30;12.65;;;5.80;;
59970;SDS011;45825;45.434;9.116;2023-06-26T04:38:56;10.45;;;5.90;;
59970;SDS011;45825;45.434;9.116;2023-06-26T04:41:22;11.20;;;6.20;;
59970;SDS011;45825;45.434;9.116;2023-06-26T04:43:47;12.35;;;6.85;;
59970;SDS011;45825;45.434;9.116;2023-06-26T04:46:12;12.27;;;6.55;;
59970;SDS011;45825;45.434;9.116;2023-06-26T04:48:38;13.02;;;6.90;;
59970;SDS011;45825;45.434;9.116;2023-06-26T04:51:03;13.32;;;7.00;;
59970;SDS011;45825;45.434;9.116;2023-06-26T04:53:28;11.35;;;6.55;;
59970;SDS011;45825;45.434;9.116;2023-06-26T04:55:54;14.13;;;7.68;;
59970;SDS011;45825;45.434;9.116;2023-06-26T04:58:19;10.07;;;6.55;;
59970;SDS011;45825;45.434;9.116;2023-06-26T05:00:45;10.05;;;5.55;;
59970;SDS011;45825;45.434;9.116;2023-06-26T05:03:12;10.93;;;5.72;;
59970;SDS011;45825;45.434;9.116;2023-06-26T05:05:38;14.52;;;5.38;;
59970;SDS011;45825;45.434;9.116;2023-06-26T05:08:16;12.38;;;5.40;;
59970;SDS011;45825;45.434;9.116;2023-06-26T05:10:43;10.57;;;5.50;;
59970;SDS011;45825;45.434;9.116;2023-06-26T05:13:09;10.98;;;5.68;;
59970;SDS011;45825;45.434;9.116;2023-06-26T05:15:34;11.93;;;5.68;;
59970;SDS011;45825;45.434;9.116;2023-06-26T05:18:00;8.60;;;5.63;;
59970;SDS011;45825;45.434;9.116;2023-06-26T05:20:25;9.48;;;4.75;;
59970;SDS011;45825;45.434;9.116;2023-06-26T05:22:50;9.33;;;5.00;;
59970;SDS011;45825;45.434;9.116;2023-06-26T05:25:17;9.10;;;4.95;;
59970;SDS011;45825;45.434;9.116;2023-06-26T05:27:43;10.85;;;4.95;;
59970;SDS011;45825;45.434;9.116;2023-06-26T05:30:09;11.60;;;5.20;;
59970;SDS011;45825;45.434;9.116;2023-06-26T05:32:35;9.18;;;5.05;;
59970;SDS011;45825;45.434;9.116;2023-06-26T05:35:03;10.50;;;4.75;;
59970;SDS011;45825;45.434;9.116;2023-06-26T05:37:30;9.65;;;4.63;;
59970;SDS011;45825;45.434;9.116;2023-06-26T05:39:56;7.30;;;4.47;;
59970;SDS011;45825;45.434;9.116;2023-06-26T05:42:21;10.75;;;4.57;;
59970;SDS011;45825;45.434;9.116;2023-06-26T05:44:47;11.45;;;4.75;;
59970;SDS011;45825;45.434;9.116;2023-06-26T05:47:12;12.27;;;5.05;;
59970;SDS011;45825;45.434;9.116;2023-06-26T05:49:38;9.02;;;4.30;;
59970;SDS011;45825;45.434;9.116;2023-06-26T05:52:03;12.23;;;4.63;;
59970;SDS011;45825;45.434;9.116;2023-06-26T05:54:29;7.65;;;4.53;;
59970;SDS011;45825;45.434;9.116;2023-06-26T05:56:56;10.75;;;4.40;;
59970;SDS011;45825;45.434;9.116;2023-06-26T05:59:24;8.80;;;4.13;;
59970;SDS011;45825;45.434;9.116;2023-06-26T06:01:51;11.13;;;4.18;;
59970;SDS011;45825;45.434;9.116;2023-06-26T06:04:16;10.02;;;4.88;;
59970;SDS011;45825;45.434;9.116;2023-06-26T06:06:41;10.18;;;4.22;;
59970;SDS011;45825;45.434;9.116;2023-06-26T06:09:07;12.23;;;4.50;;
59970;SDS011;45825;45.434;9.116;2023-06-26T06:11:32;11.93;;;3.85;;
59970;SDS011;45825;45.434;9.116;2023-06-26T06:13:57;10.95;;;4.45;;
59970;SDS011;45825;45.434;9.116;2023-06-26T06:16:24;11.50;;;4.80;;
59970;SDS011;45825;45.434;9.116;2023-06-26T06:18:50;10.32;;;4.55;;
59970;SDS011;45825;45.434;9.116;2023-06-26T06:21:15;10.40;;;5.10;;
59970;SDS011;45825;45.434;9.116;2023-06-26T06:23:40;9.77;;;4.32;;
59970;SDS011;45825;45.434;9.116;2023-06-26T06:26:06;8.98;;;4.90;;
59970;SDS011;45825;45.434;9.116;2023-06-26T06:28:31;9.60;;;4.83;;
59970;SDS011;45825;45.434;9.116;2023-06-26T06:30:56;10.75;;;5.20;;
59970;SDS011;45825;45.434;9.116;2023-06-26T06:33:21;10.27;;;4.97;;
59970;SDS011;45825;45.434;9.116;2023-06-26T06:35:47;11.48;;;5.10;;
59970;SDS011;45825;45.434;9.116;2023-06-26T06:38:12;8.97;;;5.20;;
59970;SDS011;45825;45.434;9.116;2023-06-26T06:40:37;13.52;;;4.93;;
59970;SDS011;45825;45.434;9.116;2023-06-26T06:43:02;9.40;;;4.72;;
59970;SDS011;45825;45.434;9.116;2023-06-26T06:45:28;14.07;;;5.00;;
59970;SDS011;45825;45.434;9.116;2023-06-26T06:47:53;11.63;;;5.18;;
59970;SDS011;45825;45.434;9.116;2023-06-26T06:50:19;18.75;;;5.20;;
59970;SDS011;45825;45.434;9.116;2023-06-26T06:52:45;9.13;;;4.97;;
59970;SDS011;45825;45.434;9.116;2023-06-26T06:55:10;9.00;;;4.80;;
59970;SDS011;45825;45.434;9.116;2023-06-26T06:57:36;11.50;;;4.93;;
59970;SDS011;45825;45.434;9.116;2023-06-26T07:00:06;10.48;;;4.95;;
59970;SDS011;45825;45.434;9.116;2023-06-26T07:02:34;9.25;;;4.78;;
59970;SDS011;45825;45.434;9.116;2023-06-26T07:05:01;10.60;;;4.78;;
59970;SDS011;45825;45.434;9.116;2023-06-26T07:07:28;9.07;;;4.90;;
59970;SDS011;45825;45.434;9.116;2023-06-26T07:09:55;9.00;;;4.85;;
59970;SDS011;45825;45.434;9.116;2023-06-26T07:12:21;8.80;;;4.25;;
59970;SDS011;45825;45.434;9.116;2023-06-26T07:14:46;10.23;;;4.53;;
59970;SDS011;45825;45.434;9.116;2023-06-26T07:17:12;8.02;;;5.03;;
59970;SDS011;45825;45.434;9.116;2023-06-26T07:19:37;12.57;;;4.37;;
59970;SDS011;45825;45.434;9.116;2023-06-26T07:22:02;13.60;;;4.68;;
59970;SDS011;45825;45.434;9.116;2023-06-26T07:24:28;9.85;;;4.97;;
59970;SDS011;45825;45.434;9.116;2023-06-26T07:26:53;9.93;;;4.50;;
59970;SDS011;45825;45.434;9.116;2023-06-26T07:29:18;9.40;;;4.38;;
59970;SDS011;45825;45.434;9.116;2023-06-26T07:31:43;9.70;;;4.97;;
59970;SDS011;45825;45.434;9.116;2023-06-26T07:34:10;11.25;;;5.13;;
59970;SDS011;45825;45.434;9.116;2023-06-26T07:36:35;11.70;;;4.57;;
59970;SDS011;45825;45.434;9.116;2023-06-26T07:39:00;12.10;;;4.80;;
59970;SDS011;45825;45.434;9.116;2023-06-26T07:41:26;11.57;;;4.90;;
59970;SDS011;45825;45.434;9.116;2023-06-26T07:43:51;9.30;;;5.30;;
59970;SDS011;45825;45.434;9.116;2023-06-26T07:46:16;9.40;;;4.83;;
59970;SDS011;45825;45.434;9.116;2023-06-26T07:48:41;9.52;;;5.20;;
59970;SDS011;45825;45.434;9.116;2023-06-26T07:51:07;10.35;;;5.07;;
59970;SDS011;45825;45.434;9.116;2023-06-26T07:53:32;12.20;;;5.53;;
59970;SDS011;45825;45.434;9.116;2023-06-26T07:55:57;9.43;;;4.22;;
59970;SDS011;45825;45.434;9.116;2023-06-26T07:58:23;9.57;;;4.47;;
59970;SDS011;45825;45.434;9.116;2023-06-26T08:00:48;9.05;;;4.85;;
59970;SDS011;45825;45.434;9.116;2023-06-26T08:03:14;8.25;;;4.93;;
59970;SDS011;45825;45.434;9.116;2023-06-26T08:05:39;10.43;;;4.80;;
59970;SDS011;45825;45.434;9.116;2023-06-26T08:08:04;11.85;;;5.00;;
59970;SDS011;45825;45.434;9.116;2023-06-26T08:10:29;9.68;;;6.07;;
59970;SDS011;45825;45.434;9.116;2023-06-26T08:12:55;11.65;;;5.53;;
59970;SDS011;45825;45.434;9.116;2023-06-26T08:15:21;8.93;;;5.32;;
59970;SDS011;45825;45.434;9.116;2023-06-26T08:17:46;11.23;;;4.90;;
59970;SDS011;45825;45.434;9.116;2023-06-26T08:20:12;9.25;;;4.55;;
59970;SDS011;45825;45.434;9.116;2023-06-26T08:22:37;10.07;;;4.88;;
59970;SDS011;45825;45.434;9.116;2023-06-26T08:25:03;17.58;;;5.47;;
59970;SDS011;45825;45.434;9.116;2023-06-26T08:27:30;11.00;;;5.25;;
59970;SDS011;45825;45.434;9.116;2023-06-26T08:29:55;9.18;;;5.00;;
59970;SDS011;45825;45.434;9.116;2023-06-26T08:32:21;11.23;;;4.80;;
59970;SDS011;45825;45.434;9.116;2023-06-26T08:34:46;10.43;;;4.47;;
59970;SDS011;45825;45.434;9.116;2023-06-26T08:37:11;10.38;;;4.63;;
59970;SDS011;45825;45.434;9.116;2023-06-26T08:39:36;11.73;;;5.30;;
59970;SDS011;45825;45.434;9.116;2023-06-26T08:42:02;10.83;;;4.67;;
59970;SDS011;45825;45.434;9.116;2023-06-26T08:44:27;11.73;;;5.40;;
59970;SDS011;45825;45.434;9.116;2023-06-26T08:46:52;7.35;;;4.40;;
59970;SDS011;45825;45.434;9.116;2023-06-26T08:49:20;7.85;;;5.15;;
59970;SDS011;45825;45.434;9.116;2023-06-26T08:51:56;10.70;;;4.60;;
59970;SDS011;45825;45.434;9.116;2023-06-26T08:54:31;7.10;;;4.40;;
59970;SDS011;45825;45.434;9.116;2023-06-26T08:57:01;11.98;;;4.60;;
59970;SDS011;45825;45.434;9.116;2023-06-26T08:59:27;9.75;;;5.07;;
59970;SDS011;45825;45.434;9.116;2023-06-26T09:01:53;8.82;;;4.68;;
59970;SDS011;45825;45.434;9.116;2023-06-26T09:04:19;7.05;;;4.05;;
59970;SDS011;45825;45.434;9.116;2023-06-26T09:06:44;7.05;;;4.45;;
59970;SDS011;45825;45.434;9.116;2023-06-26T09:09:09;9.15;;;4.72;;
59970;SDS011;45825;45.434;9.116;2023-06-26T09:11:35;8.05;;;4.60;;
59970;SDS011;45825;45.434;9.116;2023-06-26T09:14:00;8.23;;;4.57;;
59970;SDS011;45825;45.434;9.116;2023-06-26T09:16:29;7.90;;;4.43;;
59970;SDS011;45825;45.434;9.116;2023-06-26T09:18:55;9.85;;;4.80;;
59970;SDS011;45825;45.434;9.116;2023-06-26T09:21:21;14.27;;;4.97;;
59970;SDS011;45825;45.434;9.116;2023-06-26T09:23:47;7.30;;;4.10;;
59970;SDS011;45825;45.434;9.116;2023-06-26T09:26:14;7.35;;;4.47;;
59970;SDS011;45825;45.434;9.116;2023-06-26T09:28:41;9.00;;;4.75;;
59970;SDS011;45825;45.434;9.116;2023-06-26T09:31:07;9.00;;;4.75;;
59970;SDS011;45825;45.434;9.116;2023-06-26T09:33:33;11.05;;;4.68;;
59970;SDS011;45825;45.434;9.116;2023-06-26T09:36:01;12.75;;;6.28;;
59970;SDS011;45825;45.434;9.116;2023-06-26T09:38:30;13.77;;;6.05;;
59970;SDS011;45825;45.434;9.116;2023-06-26T09:40:55;10.95;;;5.72;;
59970;SDS011;45825;45.434;9.116;2023-06-26T09:43:20;11.82;;;5.78;;
59970;SDS011;45825;45.434;9.116;2023-06-26T09:45:46;12.40;;;6.35;;
59970;SDS011;45825;45.434;9.116;2023-06-26T09:48:11;12.73;;;5.70;;
59970;SDS011;45825;45.434;9.116;2023-06-26T09:50:41;12.75;;;6.22;;
59970;SDS011;45825;45.434;9.116;2023-06-26T09:53:12;13.40;;;5.35;;
59970;SDS011;45825;45.434;9.116;2023-06-26T09:55:38;9.80;;;5.30;;
59970;SDS011;45825;45.434;9.116;2023-06-26T09:58:05;13.18;;;5.40;;
59970;SDS011;45825;45.434;9.116;2023-06-26T10:00:31;9.23;;;4.90;;
59970;SDS011;45825;45.434;9.116;2023-06-26T10:02:57;13.40;;;4.82;;
59970;SDS011;45825;45.434;9.116;2023-06-26T10:05:23;9.05;;;4.55;;
59970;SDS011;45825;45.434;9.116;2023-06-26T10:07:48;9.13;;;3.90;;
59970;SDS011;45825;45.434;9.116;2023-06-26T10:10:14;8.77;;;4.15;;
59970;SDS011;45825;45.434;9.116;2023-06-26T10:12:41;8.75;;;4.10;;
59970;SDS011;45825;45.434;9.116;2023-06-26T10:15:12;7.18;;;3.88;;
59970;SDS011;45825;45.434;9.116;2023-06-26T10:17:44;6.93;;;3.60;;
59970;SDS011;45825;45.434;9.116;2023-06-26T10:20:11;7.65;;;3.95;;
59970;SDS011;45825;45.434;9.116;2023-06-26T10:22:45;8.27;;;3.83;;
59970;SDS011;45825;45.434;9.116;2023-06-26T10:25:12;10.68;;;4.70;;
59970;SDS011;45825;45.434;9.116;2023-06-26T10:27:43;8.00;;;3.93;;
59970;SDS011;45825;45.434;9.116;2023-06-26T10:30:16;8.55;;;4.97;;
59970;SDS011;45825;45.434;9.116;2023-06-26T10:32:45;8.45;;;4.40;;
59970;SDS011;45825;45.434;9.116;2023-06-26T10:35:12;7.45;;;4.63;;
59970;SDS011;45825;45.434;9.116;2023-06-26T10:37:41;7.00;;;4.05;;
59970;SDS011;45825;45.434;9.116;2023-06-26T10:40:11;9.10;;;4.20;;
59970;SDS011;45825;45.434;9.116;2023-06-26T10:42:38;9.50;;;5.65;;
59970;SDS011;45825;45.434;9.116;2023-06-26T10:45:14;8.70;;;4.28;;
59970;SDS011;45825;45.434;9.116;2023-06-26T10:47:41;11.40;;;5.13;;
59970;SDS011;45825;45.434;9.116;2023-06-26T10:50:20;7.03;;;4.28;;
59970;SDS011;45825;45.434;9.116;2023-06-26T10:55:34;9.55;;;4.20;;
59970;SDS011;45825;45.434;9.116;2023-06-26T10:58:00;9.68;;;5.50;;
59970;SDS011;45825;45.434;9.116;2023-06-26T11:00:26;10.13;;;4.70;;
59970;SDS011;45825;45.434;9.116;2023-06-26T11:02:52;7.20;;;4.50;;
59970;SDS011;45825;45.434;9.116;2023-06-26T11:05:32;9.40;;;4.95;;
59970;SDS011;45825;45.434;9.116;2023-06-26T11:08:07;8.57;;;4.70;;
59970;SDS011;45825;45.434;9.116;2023-06-26T11:10:48;9.93;;;5.03;;
59970;SDS011;45825;45.434;9.116;2023-06-26T11:13:18;8.52;;;5.57;;
59970;SDS011;45825;45.434;9.116;2023-06-26T11:15:44;7.93;;;4.43;;
59970;SDS011;45825;45.434;9.116;2023-06-26T11:18:10;8.23;;;4.00;;
59970;SDS011;45825;45.434;9.116;2023-06-26T11:20:37;11.13;;;5.07;;
59970;SDS011;45825;45.434;9.116;2023-06-26T11:23:03;8.73;;;5.10;;
59970;SDS011;45825;45.434;9.116;2023-06-26T11:25:32;9.05;;;5.30;;
59970;SDS011;45825;45.434;9.116;2023-06-26T11:28:00;9.10;;;5.28;;
59970;SDS011;45825;45.434;9.116;2023-06-26T11:30:25;10.07;;;4.50;;
59970;SDS011;45825;45.434;9.116;2023-06-26T11:32:51;9.85;;;4.68;;
59970;SDS011;45825;45.434;9.116;2023-06-26T11:35:23;9.07;;;4.68;;
59970;SDS011;45825;45.434;9.116;2023-06-26T11:37:56;10.07;;;5.03;;
59970;SDS011;45825;45.434;9.116;2023-06-26T11:40:22;11.40;;;4.40;;
59970;SDS011;45825;45.434;9.116;2023-06-26T11:42:52;10.30;;;4.75;;
59970;SDS011;45825;45.434;9.116;2023-06-26T11:45:18;8.55;;;4.60;;
59970;SDS011;45825;45.434;9.116;2023-06-26T11:47:44;8.25;;;5.00;;
59970;SDS011;45825;45.434;9.116;2023-06-26T11:50:14;8.73;;;5.07;;
59970;SDS011;45825;45.434;9.116;2023-06-26T11:52:41;8.00;;;4.47;;
59970;SDS011;45825;45.434;9.116;2023-06-26T11:55:06;11.40;;;5.13;;
59970;SDS011;45825;45.434;9.116;2023-06-26T11:57:32;7.88;;;5.07;;
59970;SDS011;45825;45.434;9.116;2023-06-26T11:59:57;6.77;;;3.90;;
59970;SDS011;45825;45.434;9.116;2023-06-26T12:02:23;8.80;;;4.57;;
59970;SDS011;45825;45.434;9.116;2023-06-26T12:04:48;7.60;;;5.05;;
59970;SDS011;45825;45.434;9.116;2023-06-26T12:07:14;8.65;;;4.40;;
59970;SDS011;45825;45.434;9.116;2023-06-26T12:09:43;8.45;;;4.40;;
59970;SDS011;45825;45.434;9.116;2023-06-26T12:14:46;9.00;;;5.05;;
59970;SDS011;45825;45.434;9.116;2023-06-26T12:17:12;10.10;;;4.75;;
59970;SDS011;45825;45.434;9.116;2023-06-26T12:19:39;9.02;;;5.28;;
59970;SDS011;45825;45.434;9.116;2023-06-26T12:22:08;8.77;;;4.05;;
59970;SDS011;45825;45.434;9.116;2023-06-26T12:24:36;8.85;;;4.40;;
59970;SDS011;45825;45.434;9.116;2023-06-26T12:27:08;8.73;;;5.00;;
59970;SDS011;45825;45.434;9.116;2023-06-26T12:29:34;10.70;;;4.22;;
59970;SDS011;45825;45.434;9.116;2023-06-26T12:32:00;7.32;;;4.45;;
59970;SDS011;45825;45.434;9.116;2023-06-26T12:34:33;9.18;;;4.18;;
59970;SDS011;45825;45.434;9.116;2023-06-26T12:37:00;9.95;;;5.13;;
59970;SDS011;45825;45.434;9.116;2023-06-26T12:39:28;10.20;;;4.78;;
59970;SDS011;45825;45.434;9.116;2023-06-26T12:41:55;8.27;;;4.70;;
59970;SDS011;45825;45.434;9.116;2023-06-26T12:44:26;6.50;;;4.18;;
59970;SDS011;45825;45.434;9.116;2023-06-26T12:46:54;10.43;;;5.38;;
59970;SDS011;45825;45.434;9.116;2023-06-26T12:49:38;6.90;;;4.50;;
59970;SDS011;45825;45.434;9.116;2023-06-26T12:52:05;9.13;;;4.30;;
59970;SDS011;45825;45.434;9.116;2023-06-26T12:54:36;7.22;;;4.25;;
59970;SDS011;45825;45.434;9.116;2023-06-26T12:57:03;8.05;;;4.20;;
59970;SDS011;45825;45.434;9.116;2023-06-26T12:59:29;8.63;;;4.53;;
59970;SDS011;45825;45.434;9.116;2023-06-26T13:01:55;6.95;;;4.43;;
59970;SDS011;45825;45.434;9.116;2023-06-26T13:04:21;6.97;;;4.60;;
59970;SDS011;45825;45.434;9.116;2023-06-26T13:06:46;7.43;;;3.93;;
59970;SDS011;45825;45.434;9.116;2023-06-26T13:09:11;7.32;;;4.60;;
59970;SDS011;45825;45.434;9.116;2023-06-26T13:11:37;8.90;;;4.68;;
59970;SDS011;45825;45.434;9.116;2023-06-26T13:14:02;8.30;;;4.50;;
59970;SDS011;45825;45.434;9.116;2023-06-26T13:16:28;7.43;;;4.43;;
59970;SDS011;45825;45.434;9.116;2023-06-26T13:18:54;7.63;;;4.07;;
59970;SDS011;45825;45.434;9.116;2023-06-26T13:21:19;7.00;;;4.53;;
59970;SDS011;45825;45.434;9.116;2023-06-26T13:23:44;8.63;;;4.65;;
59970;SDS011;45825;45.434;9.116;2023-06-26T13:26:10;7.68;;;4.43;;
59970;SDS011;45825;45.434;9.116;2023-06-26T13:28:36;8.50;;;4.20;;
59970;SDS011;45825;45.434;9.116;2023-06-26T13:31:02;7.90;;;4.65;;
59970;SDS011;45825;45.434;9.116;2023-06-26T13:33:28;9.38;;;4.75;;
59970;SDS011;45825;45.434;9.116;2023-06-26T13:35:53;9.05;;;4.32;;
59970;SDS011;45825;45.434;9.116;2023-06-26T13:38:20;9.35;;;4.55;;
59970;SDS011;45825;45.434;9.116;2023-06-26T13:40:49;10.43;;;4.68;;
59970;SDS011;45825;45.434;9.116;2023-06-26T13:43:22;7.30;;;4.20;;
59970;SDS011;45825;45.434;9.116;2023-06-26T13:45:48;7.55;;;4.10;;
59970;SDS011;45825;45.434;9.116;2023-06-26T13:48:14;8.82;;;4.90;;
59970;SDS011;45825;45.434;9.116;2023-06-26T13:50:40;7.97;;;4.75;;
59970;SDS011;45825;45.434;9.116;2023-06-26T13:53:05;8.80;;;4.60;;
59970;SDS011;45825;45.434;9.116;2023-06-26T13:55:31;6.90;;;4.22;;
59970;SDS011;45825;45.434;9.116;2023-06-26T13:57:57;16.35;;;4.75;;
59970;SDS011;45825;45.434;9.116;2023-06-26T14:00:23;7.40;;;4.20;;
59970;SDS011;45825;45.434;9.116;2023-06-26T14:02:49;8.20;;;3.83;;
59970;SDS011;45825;45.434;9.116;2023-06-26T14:05:14;7.13;;;4.07;;
59970;SDS011;45825;45.434;9.116;2023-06-26T14:07:40;8.43;;;3.95;;
59970;SDS011;45825;45.434;9.116;2023-06-26T14:10:05;9.95;;;4.05;;
59970;SDS011;45825;45.434;9.116;2023-06-26T14:12:31;7.88;;;4.00;;
59970;SDS011;45825;45.434;9.116;2023-06-26T14:14:57;8.82;;;4.10;;
59970;SDS011;45825;45.434;9.116;2023-06-26T14:17:22;9.10;;;4.20;;
59970;SDS011;45825;45.434;9.116;2023-06-26T14:19:49;10.18;;;4.50;;
59970;SDS011;45825;45.434;9.116;2023-06-26T14:22:14;9.68;;;4.15;;
59970;SDS011;45825;45.434;9.116;2023-06-26T14:24:40;8.68;;;4.53;;
59970;SDS011;45825;45.434;9.116;2023-06-26T14:27:05;7.18;;;4.13;;
59970;SDS011;45825;45.434;9.116;2023-06-26T14:29:30;7.85;;;3.90;;
59970;SDS011;45825;45.434;9.116;2023-06-26T14:31:55;6.60;;;4.30;;
59970;SDS011;45825;45.434;9.116;2023-06-26T14:34:21;10.05;;;4.10;;
59970;SDS011;45825;45.434;9.116;2023-06-26T14:36:46;8.77;;;4.07;;
59970;SDS011;45825;45.434;9.116;2023-06-26T14:39:11;10.02;;;4.10;;
59970;SDS011;45825;45.434;9.116;2023-06-26T14:41:37;8.73;;;4.50;;
59970;SDS011;45825;45.434;9.116;2023-06-26T14:44:02;8.17;;;4.50;;
59970;SDS011;45825;45.434;9.116;2023-06-26T14:46:28;7.75;;;3.90;;
59970;SDS011;45825;45.434;9.116;2023-06-26T14:48:53;6.97;;;4.13;;